Flight Track Log - Related Links

Times and Time Zones

All times are in EDT time to prevent confusion due to time zone crossing. See the N265NX flight status page for this flight to view local times or setup timezone preferences in your user account.

Time Position Orientation Groundspeed Altitude Reporting Facility
EDT Latitude Longitude Course Direction KTS MPH feet Rate Location/Type
Thu 05:50:05 PM 43.5808 -116.2972 231° Southwest 148 170 5,600  Level Salt Lake Center
Thu 05:51:07 PM 43.5514 -116.3411 227° Southwest 160 184 7,600 2,032 Climbing Salt Lake Center
Thu 05:52:09 PM 43.5222 -116.3903 231° Southwest 159 183 9,800 2,081 Climbing Salt Lake Center
Thu 05:53:11 PM 43.4933 -116.4372 230° Southwest 154 177 11,900 1,742 Climbing Salt Lake Center
Thu 05:54:13 PM 43.4653 -116.4814 229° Southwest 164 189 13,400 1,597 Climbing Salt Lake Center
Thu 05:55:00 PM 43.3094 -116.6455 231° Southwest  Level FlightAware Approximate
Thu 05:55:15 PM 43.4308 -116.5372 230° Southwest 171 197 15,200  Level Salt Lake Center
Thu 05:56:17 PM 43.3997 -116.5872 229° Southwest 179 206 16,900 1,694 Climbing Salt Lake Center
Thu 05:57:19 PM 43.3642 -116.6456 230° Southwest 178 205 18,700 1,597 Climbing Salt Lake Center
Thu 05:58:21 PM 43.3333 -116.6964 230° Southwest 180 207 20,200 1,403 Climbing Salt Lake Center
Thu 05:59:23 PM 43.2961 -116.7556 229° Southwest 184 212 21,600 864 Climbing Salt Lake Center
Thu 06:00:26 PM 43.2631 -116.8092 230° Southwest 196 226 22,000 192 Climbing Salt Lake Center
Thu 06:01:28 PM 43.2158 -116.8825 229° Southwest 228 262 22,000  Level Salt Lake Center
Thu 06:02:30 PM 43.1747 -116.9511 231° Southwest 239 275 22,000  Level Salt Lake Center
Thu 06:03:31 PM 43.1264 -117.0283 229° Southwest 239 275 22,000  Level Salt Lake Center
Thu 06:04:33 PM 43.0850 -117.0944 229° Southwest 239 275 22,000  Level Salt Lake Center
Thu 06:05:35 PM 43.0364 -117.1725 230° Southwest 242 278 22,000  Level Salt Lake Center
Thu 06:06:37 PM 42.9947 -117.2378 229° Southwest 239 275 22,000  Level Salt Lake Center
Thu 06:07:39 PM 42.9528 -117.3017 228° Southwest 235 270 22,000  Level Salt Lake Center
Thu 06:08:41 PM 42.9047 -117.3786 230° Southwest 238 274 22,000  Level Salt Lake Center
Thu 06:09:43 PM 42.8636 -117.4433 229° Southwest 236 272 22,000  Level Salt Lake Center
Thu 06:10:45 PM 42.8142 -117.5183 228° Southwest 236 272 22,000  Level Salt Lake Center
Thu 06:11:47 PM 42.7731 -117.5844 230° Southwest 238 274 22,000  Level Salt Lake Center
Thu 06:12:49 PM 42.7244 -117.6592 228° Southwest 235 270 22,000  Level Salt Lake Center
Thu 06:13:51 PM 42.6836 -117.7233 229° Southwest 235 270 22,000  Level Salt Lake Center
Thu 06:14:53 PM 42.6350 -117.7972 228° Southwest 235 270 22,000  Level Salt Lake Center
Thu 06:15:55 PM 42.5925 -117.8578 226° Southwest 231 266 22,000  Level Salt Lake Center
Thu 06:16:57 PM 42.5225 -117.8931 200° South 240 276 22,000  Level Salt Lake Center
Thu 06:17:59 PM 42.4594 -117.9172 196° South 244 281 22,000  Level Salt Lake Center
Thu 06:19:01 PM 42.3967 -117.9397 195° South 242 278 22,000  Level Salt Lake Center
Thu 06:20:03 PM 42.3228 -117.9672 195° South 246 283 22,000  Level Salt Lake Center
Thu 06:21:05 PM 42.2603 -117.9906 195° South 244 281 22,000  Level Salt Lake Center
Thu 06:22:06 PM 42.1889 -118.0167 195° South 244 281 22,000  Level Salt Lake Center
Thu 06:23:08 PM 42.1267 -118.0406 196° South 243 280 22,000  Level Salt Lake Center
Thu 06:24:10 PM 42.0542 -118.0678 196° South 242 278 22,000  Level Salt Lake Center
Thu 06:25:12 PM 41.9914 -118.0897 195° South 242 278 22,000  Level Salt Lake Center
Thu 06:26:15 PM 41.9186 -118.1164 195° South 243 280 22,000  Level Salt Lake Center
Thu 06:27:16 PM 41.8564 -118.1397 196° South 243 280 22,000  Level Salt Lake Center
Thu 06:28:18 PM 41.7828 -118.1656 195° South 244 281 22,000  Level Salt Lake Center
Thu 06:29:20 PM 41.7206 -118.1883 195° South 242 278 22,000  Level Salt Lake Center
Thu 06:30:22 PM 41.6458 -118.2147 195° South 249 287 22,000  Level Salt Lake Center
Thu 06:31:24 PM 41.5831 -118.2392 196° South 248 285 22,000  Level Salt Lake Center
Thu 06:32:25 PM 41.5106 -118.2650 195° South 242 278 22,000  Level Salt Lake Center
Thu 06:33:27 PM 41.4497 -118.2847 194° South 237 273 22,000  Level Salt Lake Center
Thu 06:34:29 PM 41.3872 -118.3086 196° South 240 276 22,000  Level Salt Lake Center
Thu 06:35:31 PM 41.3158 -118.3333 195° South 239 275 22,000  Level Salt Lake Center
Thu 06:36:33 PM 41.2531 -118.3561 195° South 243 280 22,000  Level Salt Lake Center
Thu 06:37:35 PM 41.1803 -118.3822 195° South 243 280 22,000  Level Salt Lake Center
Thu 06:38:36 PM 41.1175 -118.4050 195° South 243 280 22,000  Level Salt Lake Center
Thu 06:39:38 PM 41.0450 -118.4308 195° South 242 278 22,000  Level Salt Lake Center
Thu 06:40:40 PM 40.9836 -118.4517 194° South 240 276 22,000  Level Salt Lake Center
Thu 06:41:42 PM 40.9103 -118.4778 195° South 243 280 22,000  Level Salt Lake Center
Thu 06:42:44 PM 40.8478 -118.4994 195° South 243 280 22,000  Level Salt Lake Center
Thu 06:43:45 PM 40.7858 -118.5225 196° South 242 278 22,000  Level Salt Lake Center
Thu 06:44:47 PM 40.7114 -118.5481 195° South 245 282 22,000  Level Salt Lake Center
Thu 06:45:49 PM 40.6489 -118.5700 195° South 244 281 22,000  Level Salt Lake Center
Thu 06:46:51 PM 40.5747 -118.5961 195° South 246 283 22,000  Level Salt Lake Center
Thu 06:47:53 PM 40.5106 -118.6181 195° South 248 285 22,000  Level Salt Lake Center
Thu 06:48:55 PM 40.4361 -118.6442 195° South 248 285 22,000  Level Salt Lake Center
Thu 06:50:14 PM 40.3456 -118.6747 194° South 247 284 22,000  Level Oakland Center
Thu 06:50:58 PM 40.2983 -118.6919 196° South 247 284 22,000  Level Salt Lake Center
Thu 06:52:00 PM 40.2367 -118.7111 193° South 253 291 22,000  Level Salt Lake Center
Thu 06:53:02 PM 40.1692 -118.7358 196° South 253 291 22,000  Level Salt Lake Center
Thu 06:54:04 PM 40.0875 -118.7633 194° South 253 291 22,000  Level Salt Lake Center
Thu 06:55:05 PM 40.0206 -118.7867 195° South 250 288 22,000  Level Salt Lake Center
Thu 06:56:07 PM 39.9600 -118.8239 205° Southwest 242 278 22,000  Level Salt Lake Center
Thu 06:57:24 PM 39.8872 -118.8706 206° Southwest 244 281 22,000  Level Oakland Center
Thu 06:58:26 PM 39.8269 -118.9083 206° Southwest 242 278 22,000  Level Oakland Center
Thu 06:59:27 PM 39.7547 -118.9542 206° Southwest 243 280 22,000  Level Oakland Center
Thu 07:00:29 PM 39.6944 -118.9917 206° Southwest 242 278 22,000  Level Oakland Center
Thu 07:01:30 PM 39.6333 -119.0300 206° Southwest 244 281 22,000  Level Oakland Center
Thu 07:02:32 PM 39.5722 -119.0686 206° Southwest 247 284 22,000  Level Oakland Center
Thu 07:03:33 PM 39.5114 -119.1072 206° Southwest 246 283 22,000  Level Oakland Center
Thu 07:04:34 PM 39.4506 -119.1442 205° Southwest 244 281 22,000  Level Oakland Center
Thu 07:05:36 PM 39.3772 -119.1897 206° Southwest 245 282 22,000  Level Oakland Center
Thu 07:06:38 PM 39.3169 -119.2278 206° Southwest 243 280 22,000  Level Oakland Center
Thu 07:07:39 PM 39.2567 -119.2656 206° Southwest 241 277 22,000  Level Oakland Center
Thu 07:08:41 PM 39.1903 -119.2911 197° South 247 284 22,000  Level Oakland Center
Thu 07:09:42 PM 39.1200 -119.3058 189° South 256 295 22,000  Level Oakland Center
Thu 07:10:44 PM 39.0489 -119.3231 191° South 258 297 22,000  Level Oakland Center
Thu 07:11:45 PM 38.9764 -119.3397 190° South 263 303 22,000  Level Oakland Center
Thu 07:12:47 PM 38.9050 -119.3561 190° South 261 300 22,000  Level Oakland Center
Thu 07:13:48 PM 38.8200 -119.3756 190° South 260 299 22,000 -98 Level Oakland Center
Thu 07:14:50 PM 38.7486 -119.3925 190° South 262 302 21,800 -341 Descending Oakland Center
Thu 07:15:51 PM 38.6750 -119.4097 190° South 267 307 21,300 -390 Descending Oakland Center
Thu 07:16:53 PM 38.6003 -119.4272 190° South 272 313 21,000 -146 Descending Oakland Center
Thu 07:17:54 PM 38.5264 -119.4436 190° South 270 311 21,000  Level Oakland Center
Thu 07:18:56 PM 38.4550 -119.4611 191° South 262 302 21,000  Level Oakland Center
Thu 07:19:57 PM 38.3767 -119.4794 190° South 259 298 21,000  Level Oakland Center
Thu 07:20:59 PM 38.3061 -119.4958 190° South 257 296 21,000  Level Oakland Center
Thu 07:22:00 PM 38.2333 -119.5128 190° South 264 304 21,000  Level Oakland Center
Thu 07:23:01 PM 38.1608 -119.5294 190° South 265 305 21,000  Level Oakland Center
Thu 07:24:03 PM 38.0900 -119.5447 190° South 260 299 21,000 -146 Level Oakland Center
Thu 07:25:04 PM 38.0172 -119.5611 190° South 262 302 20,700 -390 Descending Oakland Center
Thu 07:26:06 PM 37.9389 -119.5783 190° South 277 319 20,200 -488 Descending Oakland Center
Thu 07:27:07 PM 37.8619 -119.5969 191° South 282 325 19,700 -537 Descending Oakland Center
Thu 07:28:09 PM 37.7714 -119.6169 190° South 278 320 19,100 -537 Descending Oakland Center
Thu 07:29:10 PM 37.6953 -119.6344 190° South 276 318 18,600 -829 Descending Oakland Center
Thu 07:30:12 PM 37.6172 -119.6519 190° South 284 327 17,400 -1,659 Descending Oakland Center
Thu 07:31:13 PM 37.5369 -119.6656 188° South 286 329 15,200 -1,805 Descending Oakland Center
Thu 07:32:15 PM 37.4581 -119.6714 183° South 282 325 13,700 -1,512 Descending Oakland Center
Thu 07:33:16 PM 37.3769 -119.6778 184° South 289 333 12,100 -1,561 Descending Oakland Center
Thu 07:34:18 PM 37.2939 -119.6836 183° South 273 314 10,500 -1,452 Descending Oakland Center
Thu 07:35:20 PM 37.2211 -119.6889 183° South 262 302 9,100 -1,366 Descending Oakland Center
Thu 07:36:21 PM 37.1489 -119.6933 183° South 259 298 7,700 -1,366 Descending Oakland Center
Thu 07:37:23 PM 37.0767 -119.6983 183° South 259 298 6,300 -1,317 Descending Oakland Center
Thu 07:38:24 PM 37.0058 -119.7031 183° South 255 293 5,000 -1,317 Descending Oakland Center
Thu 07:39:26 PM 36.9358 -119.7075 183° South 252 290 3,600 -1,317 Descending Oakland Center
Thu 07:40:27 PM 36.8619 -119.7128 183° South 236 272 2,300 -1,122 Descending Oakland Center
Thu 07:41:29 PM 36.8008 -119.7167 183° South 214 246 1,300 -581 Descending Oakland Center
Thu 07:42:31 PM 36.7683 -119.6811 139° Southeast 166 191 1,100 -390 Descending Oakland Center
Thu 07:43:32 PM 36.7689 -119.7078 271° West 100 115 500 -590 Descending Oakland Center
Thu 07:45:00 PM 36.7667 -119.7167 270° West  Level FlightAware Approximate

Login

Don't have an account? Register now (free) for customized features, flight alerts, and more!